sensor_id;sensor_type;location;lat;lon;timestamp;temperature;humidity
7163;DHT22;3623;47.098;15.446;2022-11-15T00:02:26;7.70;99.90
7163;DHT22;3623;47.098;15.446;2022-11-15T00:04:55;7.70;99.90
7163;DHT22;3623;47.098;15.446;2022-11-15T00:07:22;7.70;99.90
7163;DHT22;3623;47.098;15.446;2022-11-15T00:09:49;7.70;99.90
7163;DHT22;3623;47.098;15.446;2022-11-15T00:12:16;7.70;99.90
7163;DHT22;3623;47.098;15.446;2022-11-15T00:14:43;7.70;99.90
7163;DHT22;3623;47.098;15.446;2022-11-15T00:17:10;7.70;99.90
7163;DHT22;3623;47.098;15.446;2022-11-15T00:19:37;7.70;99.90
7163;DHT22;3623;47.098;15.446;2022-11-15T00:22:05;7.70;99.90
7163;DHT22;3623;47.098;15.446;2022-11-15T00:24:32;7.70;99.90
7163;DHT22;3623;47.098;15.446;2022-11-15T00:26:59;7.70;99.90
7163;DHT22;3623;47.098;15.446;2022-11-15T00:29:26;7.70;99.90
7163;DHT22;3623;47.098;15.446;2022-11-15T00:31:54;7.60;99.90
7163;DHT22;3623;47.098;15.446;2022-11-15T00:34:21;7.60;99.90
7163;DHT22;3623;47.098;15.446;2022-11-15T00:36:48;7.60;99.90
7163;DHT22;3623;47.098;15.446;2022-11-15T00:39:17;7.60;99.90
7163;DHT22;3623;47.098;15.446;2022-11-15T00:41:44;7.50;99.90
7163;DHT22;3623;47.098;15.446;2022-11-15T00:44:11;7.50;99.90
7163;DHT22;3623;47.098;15.446;2022-11-15T00:46:38;7.60;99.90
7163;DHT22;3623;47.098;15.446;2022-11-15T00:49:05;7.60;99.90
7163;DHT22;3623;47.098;15.446;2022-11-15T00:51:32;7.50;99.90
7163;DHT22;3623;47.098;15.446;2022-11-15T00:53:59;7.50;99.90
7163;DHT22;3623;47.098;15.446;2022-11-15T00:56:27;7.50;99.90
7163;DHT22;3623;47.098;15.446;2022-11-15T00:58:54;7.50;99.90
7163;DHT22;3623;47.098;15.446;2022-11-15T01:01:21;7.50;99.90
7163;DHT22;3623;47.098;15.446;2022-11-15T01:03:49;7.50;99.90
7163;DHT22;3623;47.098;15.446;2022-11-15T01:06:16;7.50;99.90
7163;DHT22;3623;47.098;15.446;2022-11-15T01:08:43;7.60;99.90
7163;DHT22;3623;47.098;15.446;2022-11-15T01:11:11;7.60;99.90
7163;DHT22;3623;47.098;15.446;2022-11-15T01:13:40;7.60;99.90
7163;DHT22;3623;47.098;15.446;2022-11-15T01:16:09;7.60;99.90
7163;DHT22;3623;47.098;15.446;2022-11-15T01:18:36;7.60;99.90
7163;DHT22;3623;47.098;15.446;2022-11-15T01:21:08;7.60;99.90
7163;DHT22;3623;47.098;15.446;2022-11-15T01:23:36;7.60;99.90
7163;DHT22;3623;47.098;15.446;2022-11-15T01:26:06;7.60;99.90
7163;DHT22;3623;47.098;15.446;2022-11-15T01:28:35;7.60;99.90
7163;DHT22;3623;47.098;15.446;2022-11-15T01:31:09;7.60;99.90
7163;DHT22;3623;47.098;15.446;2022-11-15T01:33:38;7.60;99.90
7163;DHT22;3623;47.098;15.446;2022-11-15T01:36:06;7.60;99.90
7163;DHT22;3623;47.098;15.446;2022-11-15T01:38:34;7.50;99.90
7163;DHT22;3623;47.098;15.446;2022-11-15T01:41:02;7.50;99.90
7163;DHT22;3623;47.098;15.446;2022-11-15T01:43:31;7.50;99.90
7163;DHT22;3623;47.098;15.446;2022-11-15T01:46:02;7.50;99.90
7163;DHT22;3623;47.098;15.446;2022-11-15T01:48:33;7.50;99.90
7163;DHT22;3623;47.098;15.446;2022-11-15T01:51:06;7.50;99.90
7163;DHT22;3623;47.098;15.446;2022-11-15T01:53:34;7.50;99.90
7163;DHT22;3623;47.098;15.446;2022-11-15T01:56:03;7.50;99.90
7163;DHT22;3623;47.098;15.446;2022-11-15T01:58:31;7.50;99.90
7163;DHT22;3623;47.098;15.446;2022-11-15T02:00:59;7.50;99.90
7163;DHT22;3623;47.098;15.446;2022-11-15T02:03:33;7.50;99.90
7163;DHT22;3623;47.098;15.446;2022-11-15T02:06:01;7.50;99.90
7163;DHT22;3623;47.098;15.446;2022-11-15T02:08:30;7.50;99.90
7163;DHT22;3623;47.098;15.446;2022-11-15T02:10:57;7.40;99.90
7163;DHT22;3623;47.098;15.446;2022-11-15T02:13:24;7.40;99.90
7163;DHT22;3623;47.098;15.446;2022-11-15T02:16:00;7.50;99.90
7163;DHT22;3623;47.098;15.446;2022-11-15T02:18:35;7.50;99.90
7163;DHT22;3623;47.098;15.446;2022-11-15T02:21:15;7.50;99.90
7163;DHT22;3623;47.098;15.446;2022-11-15T02:24:25;7.50;99.90
7163;DHT22;3623;47.098;15.446;2022-11-15T02:30:27;7.50;99.90
7163;DHT22;3623;47.098;15.446;2022-11-15T02:33:00;7.40;99.90
7163;DHT22;3623;47.098;15.446;2022-11-15T02:35:35;7.40;99.90
7163;DHT22;3623;47.098;15.446;2022-11-15T02:38:07;7.40;99.90
7163;DHT22;3623;47.098;15.446;2022-11-15T02:40:44;7.50;99.90
7163;DHT22;3623;47.098;15.446;2022-11-15T02:43:16;7.40;99.90
7163;DHT22;3623;47.098;15.446;2022-11-15T02:46:08;7.50;99.90
7163;DHT22;3623;47.098;15.446;2022-11-15T02:48:37;7.50;99.90
7163;DHT22;3623;47.098;15.446;2022-11-15T02:51:04;7.50;99.90
7163;DHT22;3623;47.098;15.446;2022-11-15T02:53:32;7.50;99.90
7163;DHT22;3623;47.098;15.446;2022-11-15T02:55:59;7.50;99.90
7163;DHT22;3623;47.098;15.446;2022-11-15T02:58:41;7.50;99.90
7163;DHT22;3623;47.098;15.446;2022-11-15T03:01:20;7.50;99.90
7163;DHT22;3623;47.098;15.446;2022-11-15T03:03:59;7.50;99.90
7163;DHT22;3623;47.098;15.446;2022-11-15T03:06:35;7.50;99.90
7163;DHT22;3623;47.098;15.446;2022-11-15T03:09:09;7.50;99.90
7163;DHT22;3623;47.098;15.446;2022-11-15T03:11:43;7.50;99.90
7163;DHT22;3623;47.098;15.446;2022-11-15T03:14:18;7.40;99.90
7163;DHT22;3623;47.098;15.446;2022-11-15T03:16:54;7.40;99.90
7163;DHT22;3623;47.098;15.446;2022-11-15T03:19:28;7.30;99.90
7163;DHT22;3623;47.098;15.446;2022-11-15T03:21:59;7.30;99.90
7163;DHT22;3623;47.098;15.446;2022-11-15T03:24:29;7.30;99.90
7163;DHT22;3623;47.098;15.446;2022-11-15T03:27:00;7.40;99.90
7163;DHT22;3623;47.098;15.446;2022-11-15T03:29:32;7.40;99.90
7163;DHT22;3623;47.098;15.446;2022-11-15T03:32:03;7.40;99.90
7163;DHT22;3623;47.098;15.446;2022-11-15T03:34:37;7.40;99.90
7163;DHT22;3623;47.098;15.446;2022-11-15T03:37:06;7.30;99.90
7163;DHT22;3623;47.098;15.446;2022-11-15T03:39:33;7.30;99.90
7163;DHT22;3623;47.098;15.446;2022-11-15T03:42:11;7.30;99.90
7163;DHT22;3623;47.098;15.446;2022-11-15T03:44:43;7.30;99.90
7163;DHT22;3623;47.098;15.446;2022-11-15T03:47:17;7.40;99.90
7163;DHT22;3623;47.098;15.446;2022-11-15T03:49:50;7.40;99.90
7163;DHT22;3623;47.098;15.446;2022-11-15T03:52:19;7.40;99.90
7163;DHT22;3623;47.098;15.446;2022-11-15T03:54:50;7.40;99.90
7163;DHT22;3623;47.098;15.446;2022-11-15T03:57:18;7.40;99.90
7163;DHT22;3623;47.098;15.446;2022-11-15T03:59:45;7.40;99.90
7163;DHT22;3623;47.098;15.446;2022-11-15T04:02:15;7.30;99.90
7163;DHT22;3623;47.098;15.446;2022-11-15T04:04:42;7.30;99.90
7163;DHT22;3623;47.098;15.446;2022-11-15T04:07:09;7.30;99.90
7163;DHT22;3623;47.098;15.446;2022-11-15T04:09:36;7.30;99.90
7163;DHT22;3623;47.098;15.446;2022-11-15T04:12:23;7.30;99.90
7163;DHT22;3623;47.098;15.446;2022-11-15T04:14:58;7.20;99.90
7163;DHT22;3623;47.098;15.446;2022-11-15T04:17:38;7.20;99.90
7163;DHT22;3623;47.098;15.446;2022-11-15T04:20:07;7.10;99.90
7163;DHT22;3623;47.098;15.446;2022-11-15T04:22:53;7.20;99.90
7163;DHT22;3623;47.098;15.446;2022-11-15T04:25:38;7.20;99.90
7163;DHT22;3623;47.098;15.446;2022-11-15T04:28:05;7.20;99.90
7163;DHT22;3623;47.098;15.446;2022-11-15T04:30:32;7.20;99.90
7163;DHT22;3623;47.098;15.446;2022-11-15T04:33:00;7.30;99.90
7163;DHT22;3623;47.098;15.446;2022-11-15T04:35:27;7.20;99.90
7163;DHT22;3623;47.098;15.446;2022-11-15T04:37:55;7.30;99.90
7163;DHT22;3623;47.098;15.446;2022-11-15T04:40:21;7.30;99.90
7163;DHT22;3623;47.098;15.446;2022-11-15T04:42:48;7.30;99.90
7163;DHT22;3623;47.098;15.446;2022-11-15T04:45:15;7.30;99.90
7163;DHT22;3623;47.098;15.446;2022-11-15T04:47:43;7.20;99.90
7163;DHT22;3623;47.098;15.446;2022-11-15T04:50:13;7.20;99.90
7163;DHT22;3623;47.098;15.446;2022-11-15T04:52:41;7.20;99.90
7163;DHT22;3623;47.098;15.446;2022-11-15T04:55:09;7.20;99.90
7163;DHT22;3623;47.098;15.446;2022-11-15T04:57:36;7.20;99.90
7163;DHT22;3623;47.098;15.446;2022-11-15T05:00:04;7.20;99.90
7163;DHT22;3623;47.098;15.446;2022-11-15T05:02:32;7.20;99.90
7163;DHT22;3623;47.098;15.446;2022-11-15T05:05:15;7.10;99.90
7163;DHT22;3623;47.098;15.446;2022-11-15T05:07:42;7.10;99.90
7163;DHT22;3623;47.098;15.446;2022-11-15T05:10:09;7.10;99.90
7163;DHT22;3623;47.098;15.446;2022-11-15T05:12:36;7.10;99.90
7163;DHT22;3623;47.098;15.446;2022-11-15T05:15:05;7.10;99.90
7163;DHT22;3623;47.098;15.446;2022-11-15T05:17:32;7.20;99.90
7163;DHT22;3623;47.098;15.446;2022-11-15T05:19:59;7.20;99.90
7163;DHT22;3623;47.098;15.446;2022-11-15T05:22:28;7.20;99.90
7163;DHT22;3623;47.098;15.446;2022-11-15T05:24:55;7.20;99.90
7163;DHT22;3623;47.098;15.446;2022-11-15T05:27:22;7.20;99.90
7163;DHT22;3623;47.098;15.446;2022-11-15T05:29:49;7.20;99.90
7163;DHT22;3623;47.098;15.446;2022-11-15T05:32:16;7.20;99.90
7163;DHT22;3623;47.098;15.446;2022-11-15T05:34:45;7.20;99.90
7163;DHT22;3623;47.098;15.446;2022-11-15T05:37:12;7.20;99.90
7163;DHT22;3623;47.098;15.446;2022-11-15T05:39:41;7.10;99.90
7163;DHT22;3623;47.098;15.446;2022-11-15T05:42:10;7.20;99.90
7163;DHT22;3623;47.098;15.446;2022-11-15T05:44:40;7.20;99.90
7163;DHT22;3623;47.098;15.446;2022-11-15T05:47:10;7.10;99.90
7163;DHT22;3623;47.098;15.446;2022-11-15T05:49:40;7.10;99.90
7163;DHT22;3623;47.098;15.446;2022-11-15T05:52:10;7.10;99.90
7163;DHT22;3623;47.098;15.446;2022-11-15T05:54:39;7.10;99.90
7163;DHT22;3623;47.098;15.446;2022-11-15T05:57:08;7.10;99.90
7163;DHT22;3623;47.098;15.446;2022-11-15T05:59:35;7.10;99.90
7163;DHT22;3623;47.098;15.446;2022-11-15T06:02:03;7.20;99.90
7163;DHT22;3623;47.098;15.446;2022-11-15T06:04:30;7.10;99.90
7163;DHT22;3623;47.098;15.446;2022-11-15T06:06:58;7.20;99.90
7163;DHT22;3623;47.098;15.446;2022-11-15T06:09:25;7.20;99.90
7163;DHT22;3623;47.098;15.446;2022-11-15T06:11:52;7.20;99.90
7163;DHT22;3623;47.098;15.446;2022-11-15T06:14:20;7.40;99.90
7163;DHT22;3623;47.098;15.446;2022-11-15T06:16:47;7.20;99.90
7163;DHT22;3623;47.098;15.446;2022-11-15T06:19:15;7.20;99.90
7163;DHT22;3623;47.098;15.446;2022-11-15T06:21:42;7.20;99.90
7163;DHT22;3623;47.098;15.446;2022-11-15T06:24:09;7.20;99.90
7163;DHT22;3623;47.098;15.446;2022-11-15T06:26:36;7.20;99.90
7163;DHT22;3623;47.098;15.446;2022-11-15T06:29:03;7.20;99.90
7163;DHT22;3623;47.098;15.446;2022-11-15T06:31:33;7.20;99.90
7163;DHT22;3623;47.098;15.446;2022-11-15T06:34:00;7.20;99.90
7163;DHT22;3623;47.098;15.446;2022-11-15T06:36:27;7.20;99.90
7163;DHT22;3623;47.098;15.446;2022-11-15T06:38:54;7.20;99.90
7163;DHT22;3623;47.098;15.446;2022-11-15T06:41:21;7.20;99.90
7163;DHT22;3623;47.098;15.446;2022-11-15T06:43:48;7.30;99.90
7163;DHT22;3623;47.098;15.446;2022-11-15T06:46:15;7.30;99.90
7163;DHT22;3623;47.098;15.446;2022-11-15T06:48:44;7.30;99.90
7163;DHT22;3623;47.098;15.446;2022-11-15T06:51:11;7.40;99.90
7163;DHT22;3623;47.098;15.446;2022-11-15T06:53:38;7.40;99.90
7163;DHT22;3623;47.098;15.446;2022-11-15T06:56:06;7.40;99.90
7163;DHT22;3623;47.098;15.446;2022-11-15T06:58:34;7.40;99.90
7163;DHT22;3623;47.098;15.446;2022-11-15T07:01:03;7.30;99.90
7163;DHT22;3623;47.098;15.446;2022-11-15T07:03:31;7.30;99.90
7163;DHT22;3623;47.098;15.446;2022-11-15T07:06:00;7.30;99.90
7163;DHT22;3623;47.098;15.446;2022-11-15T07:08:28;7.30;99.90
7163;DHT22;3623;47.098;15.446;2022-11-15T07:11:00;7.30;99.90
7163;DHT22;3623;47.098;15.446;2022-11-15T07:13:28;7.30;99.90
7163;DHT22;3623;47.098;15.446;2022-11-15T07:16:01;7.30;99.90
7163;DHT22;3623;47.098;15.446;2022-11-15T07:18:28;7.30;99.90
7163;DHT22;3623;47.098;15.446;2022-11-15T07:20:55;7.30;99.90
7163;DHT22;3623;47.098;15.446;2022-11-15T07:23:24;7.30;99.90
7163;DHT22;3623;47.098;15.446;2022-11-15T07:25:51;7.30;99.90
7163;DHT22;3623;47.098;15.446;2022-11-15T07:28:18;7.30;99.90
7163;DHT22;3623;47.098;15.446;2022-11-15T07:30:45;7.30;99.90
7163;DHT22;3623;47.098;15.446;2022-11-15T07:33:12;7.20;99.90
7163;DHT22;3623;47.098;15.446;2022-11-15T07:35:39;7.20;99.90
7163;DHT22;3623;47.098;15.446;2022-11-15T07:38:08;7.20;99.90
7163;DHT22;3623;47.098;15.446;2022-11-15T07:40:36;7.30;99.90
7163;DHT22;3623;47.098;15.446;2022-11-15T07:43:05;7.40;99.90
7163;DHT22;3623;47.098;15.446;2022-11-15T07:45:32;7.40;99.90
7163;DHT22;3623;47.098;15.446;2022-11-15T07:48:00;7.40;99.90
7163;DHT22;3623;47.098;15.446;2022-11-15T07:50:27;7.40;99.90
7163;DHT22;3623;47.098;15.446;2022-11-15T07:52:56;7.50;99.90
7163;DHT22;3623;47.098;15.446;2022-11-15T07:55:25;7.50;99.90
7163;DHT22;3623;47.098;15.446;2022-11-15T07:58:00;7.50;99.90
7163;DHT22;3623;47.098;15.446;2022-11-15T08:00:27;7.50;99.90
7163;DHT22;3623;47.098;15.446;2022-11-15T08:03:01;7.50;99.90
7163;DHT22;3623;47.098;15.446;2022-11-15T08:05:28;7.50;99.90
7163;DHT22;3623;47.098;15.446;2022-11-15T08:07:56;7.50;99.90
7163;DHT22;3623;47.098;15.446;2022-11-15T08:10:23;7.50;99.90
7163;DHT22;3623;47.098;15.446;2022-11-15T08:12:58;7.50;99.90
7163;DHT22;3623;47.098;15.446;2022-11-15T08:15:25;7.50;99.90
7163;DHT22;3623;47.098;15.446;2022-11-15T08:17:54;7.50;99.90
7163;DHT22;3623;47.098;15.446;2022-11-15T08:20:21;7.50;99.90
7163;DHT22;3623;47.098;15.446;2022-11-15T08:22:49;7.50;99.90
7163;DHT22;3623;47.098;15.446;2022-11-15T08:25:16;7.60;99.90
7163;DHT22;3623;47.098;15.446;2022-11-15T08:27:43;7.70;99.90
7163;DHT22;3623;47.098;15.446;2022-11-15T08:30:13;7.70;99.90
7163;DHT22;3623;47.098;15.446;2022-11-15T08:32:41;7.60;99.90
7163;DHT22;3623;47.098;15.446;2022-11-15T08:35:08;7.70;99.90
7163;DHT22;3623;47.098;15.446;2022-11-15T08:37:35;7.70;99.90
7163;DHT22;3623;47.098;15.446;2022-11-15T08:40:04;7.80;99.90
7163;DHT22;3623;47.098;15.446;2022-11-15T08:42:31;7.70;99.90
7163;DHT22;3623;47.098;15.446;2022-11-15T08:44:58;7.80;99.90
7163;DHT22;3623;47.098;15.446;2022-11-15T08:47:26;7.90;99.90
7163;DHT22;3623;47.098;15.446;2022-11-15T08:49:54;8.00;99.90
7163;DHT22;3623;47.098;15.446;2022-11-15T08:52:21;8.10;99.90
7163;DHT22;3623;47.098;15.446;2022-11-15T08:54:48;8.20;99.90
7163;DHT22;3623;47.098;15.446;2022-11-15T08:57:15;8.40;99.90
7163;DHT22;3623;47.098;15.446;2022-11-15T08:59:42;8.50;99.90
7163;DHT22;3623;47.098;15.446;2022-11-15T09:02:12;8.50;99.90
7163;DHT22;3623;47.098;15.446;2022-11-15T09:04:41;8.50;99.90
7163;DHT22;3623;47.098;15.446;2022-11-15T09:07:09;8.50;99.90
7163;DHT22;3623;47.098;15.446;2022-11-15T09:09:37;8.40;99.90
7163;DHT22;3623;47.098;15.446;2022-11-15T09:12:05;8.40;99.90
7163;DHT22;3623;47.098;15.446;2022-11-15T09:14:32;8.50;99.90
7163;DHT22;3623;47.098;15.446;2022-11-15T09:17:00;8.60;99.90
7163;DHT22;3623;47.098;15.446;2022-11-15T09:19:27;8.60;99.90
7163;DHT22;3623;47.098;15.446;2022-11-15T09:21:56;8.70;99.90
7163;DHT22;3623;47.098;15.446;2022-11-15T09:24:23;8.70;99.90
7163;DHT22;3623;47.098;15.446;2022-11-15T09:26:50;8.70;99.90
7163;DHT22;3623;47.098;15.446;2022-11-15T09:29:18;8.70;99.90
7163;DHT22;3623;47.098;15.446;2022-11-15T09:31:45;8.80;99.90
7163;DHT22;3623;47.098;15.446;2022-11-15T09:34:15;8.80;99.90
7163;DHT22;3623;47.098;15.446;2022-11-15T09:36:42;8.80;99.90
7163;DHT22;3623;47.098;15.446;2022-11-15T09:39:11;8.80;99.90
7163;DHT22;3623;47.098;15.446;2022-11-15T09:41:50;8.80;99.90
7163;DHT22;3623;47.098;15.446;2022-11-15T09:44:35;8.90;99.90
7163;DHT22;3623;47.098;15.446;2022-11-15T09:47:17;8.90;99.90
7163;DHT22;3623;47.098;15.446;2022-11-15T09:49:51;8.90;99.90
7163;DHT22;3623;47.098;15.446;2022-11-15T09:52:19;8.90;99.90
7163;DHT22;3623;47.098;15.446;2022-11-15T09:54:51;8.90;99.90
7163;DHT22;3623;47.098;15.446;2022-11-15T09:57:21;8.90;99.90
7163;DHT22;3623;47.098;15.446;2022-11-15T10:00:00;8.80;99.90
7163;DHT22;3623;47.098;15.446;2022-11-15T10:02:43;8.90;99.90
7163;DHT22;3623;47.098;15.446;2022-11-15T10:05:23;8.90;99.90
7163;DHT22;3623;47.098;15.446;2022-11-15T10:07:59;9.00;99.90
7163;DHT22;3623;47.098;15.446;2022-11-15T10:10:36;9.00;99.90
7163;DHT22;3623;47.098;15.446;2022-11-15T10:13:12;9.00;99.90
7163;DHT22;3623;47.098;15.446;2022-11-15T10:15:42;9.00;99.90
7163;DHT22;3623;47.098;15.446;2022-11-15T10:18:16;8.80;99.90
7163;DHT22;3623;47.098;15.446;2022-11-15T10:20:51;8.80;99.90
7163;DHT22;3623;47.098;15.446;2022-11-15T10:23:21;8.90;99.90
7163;DHT22;3623;47.098;15.446;2022-11-15T10:25:52;8.90;99.90
7163;DHT22;3623;47.098;15.446;2022-11-15T10:28:23;8.90;99.90
7163;DHT22;3623;47.098;15.446;2022-11-15T10:30:53;8.90;99.90
7163;DHT22;3623;47.098;15.446;2022-11-15T10:33:26;8.90;99.90
7163;DHT22;3623;47.098;15.446;2022-11-15T10:36:20;9.00;99.90
7163;DHT22;3623;47.098;15.446;2022-11-15T10:38:57;8.90;99.90
7163;DHT22;3623;47.098;15.446;2022-11-15T10:41:40;8.90;99.90
7163;DHT22;3623;47.098;15.446;2022-11-15T10:44:12;8.90;99.90
7163;DHT22;3623;47.098;15.446;2022-11-15T10:46:44;8.90;99.90
7163;DHT22;3623;47.098;15.446;2022-11-15T10:49:15;8.90;99.90
7163;DHT22;3623;47.098;15.446;2022-11-15T10:51:46;8.80;99.90
7163;DHT22;3623;47.098;15.446;2022-11-15T10:54:19;8.80;99.90
7163;DHT22;3623;47.098;15.446;2022-11-15T10:56:50;8.70;99.90
7163;DHT22;3623;47.098;15.446;2022-11-15T10:59:24;8.70;99.90
7163;DHT22;3623;47.098;15.446;2022-11-15T11:01:52;8.70;99.90
7163;DHT22;3623;47.098;15.446;2022-11-15T11:04:20;8.70;99.90
7163;DHT22;3623;47.098;15.446;2022-11-15T11:06:48;8.70;99.90
7163;DHT22;3623;47.098;15.446;2022-11-15T11:09:30;8.80;99.90
7163;DHT22;3623;47.098;15.446;2022-11-15T11:12:00;8.80;99.90
7163;DHT22;3623;47.098;15.446;2022-11-15T11:14:30;8.70;99.90
7163;DHT22;3623;47.098;15.446;2022-11-15T11:17:04;8.70;99.90
7163;DHT22;3623;47.098;15.446;2022-11-15T11:19:56;8.70;99.90
7163;DHT22;3623;47.098;15.446;2022-11-15T11:22:32;8.90;99.90
7163;DHT22;3623;47.098;15.446;2022-11-15T11:25:15;8.90;99.90
7163;DHT22;3623;47.098;15.446;2022-11-15T11:27:57;8.70;99.90
7163;DHT22;3623;47.098;15.446;2022-11-15T11:30:34;8.70;99.90
7163;DHT22;3623;47.098;15.446;2022-11-15T11:33:12;8.70;99.90
7163;DHT22;3623;47.098;15.446;2022-11-15T11:35:50;8.60;99.90
7163;DHT22;3623;47.098;15.446;2022-11-15T11:38:34;8.80;99.90
7163;DHT22;3623;47.098;15.446;2022-11-15T11:41:13;8.80;99.90
7163;DHT22;3623;47.098;15.446;2022-11-15T11:43:50;8.90;99.90
7163;DHT22;3623;47.098;15.446;2022-11-15T11:46:37;8.80;99.90
7163;DHT22;3623;47.098;15.446;2022-11-15T11:49:10;8.80;99.90
7163;DHT22;3623;47.098;15.446;2022-11-15T11:51:41;8.80;99.90
7163;DHT22;3623;47.098;15.446;2022-11-15T11:54:13;8.90;99.90
7163;DHT22;3623;47.098;15.446;2022-11-15T11:56:43;8.90;99.90
7163;DHT22;3623;47.098;15.446;2022-11-15T11:59:19;8.90;99.90
7163;DHT22;3623;47.098;15.446;2022-11-15T12:01:47;9.00;99.90
7163;DHT22;3623;47.098;15.446;2022-11-15T12:04:18;9.00;99.90
7163;DHT22;3623;47.098;15.446;2022-11-15T12:06:50;9.10;99.90
7163;DHT22;3623;47.098;15.446;2022-11-15T12:09:23;9.10;99.90
7163;DHT22;3623;47.098;15.446;2022-11-15T12:11:58;9.00;99.90
7163;DHT22;3623;47.098;15.446;2022-11-15T12:14:33;9.00;99.90
7163;DHT22;3623;47.098;15.446;2022-11-15T12:17:03;8.90;99.90
7163;DHT22;3623;47.098;15.446;2022-11-15T12:19:30;9.00;99.90
7163;DHT22;3623;47.098;15.446;2022-11-15T12:22:02;9.00;99.90
7163;DHT22;3623;47.098;15.446;2022-11-15T12:24:33;9.00;99.90
7163;DHT22;3623;47.098;15.446;2022-11-15T12:27:05;9.00;99.90
7163;DHT22;3623;47.098;15.446;2022-11-15T12:29:37;9.00;99.90
7163;DHT22;3623;47.098;15.446;2022-11-15T12:32:17;9.00;99.90
7163;DHT22;3623;47.098;15.446;2022-11-15T12:34:47;8.90;99.90
7163;DHT22;3623;47.098;15.446;2022-11-15T12:40:36;8.70;99.90
7163;DHT22;3623;47.098;15.446;2022-11-15T12:45:54;8.70;99.90
7163;DHT22;3623;47.098;15.446;2022-11-15T12:48:47;8.70;99.90
7163;DHT22;3623;47.098;15.446;2022-11-15T12:51:14;8.70;99.90
7163;DHT22;3623;47.098;15.446;2022-11-15T12:53:41;8.80;99.90
7163;DHT22;3623;47.098;15.446;2022-11-15T12:56:23;8.80;99.90
7163;DHT22;3623;47.098;15.446;2022-11-15T12:58:53;8.80;99.90
7163;DHT22;3623;47.098;15.446;2022-11-15T13:04:29;8.50;99.90
7163;DHT22;3623;47.098;15.446;2022-11-15T13:06:59;8.50;99.90
7163;DHT22;3623;47.098;15.446;2022-11-15T13:09:51;8.40;99.90
7163;DHT22;3623;47.098;15.446;2022-11-15T13:12:56;8.40;99.90
7163;DHT22;3623;47.098;15.446;2022-11-15T13:15:52;8.30;99.90
7163;DHT22;3623;47.098;15.446;2022-11-15T13:18:34;8.40;99.90
7163;DHT22;3623;47.098;15.446;2022-11-15T13:21:04;8.40;99.90
7163;DHT22;3623;47.098;15.446;2022-11-15T13:23:52;8.20;99.90
7163;DHT22;3623;47.098;15.446;2022-11-15T13:26:19;8.20;99.90
7163;DHT22;3623;47.098;15.446;2022-11-15T13:28:49;8.20;99.90
7163;DHT22;3623;47.098;15.446;2022-11-15T13:31:26;8.30;99.90
7163;DHT22;3623;47.098;15.446;2022-11-15T13:33:57;8.30;99.90
7163;DHT22;3623;47.098;15.446;2022-11-15T13:36:28;8.20;99.90
7163;DHT22;3623;47.098;15.446;2022-11-15T13:39:00;8.30;99.90
7163;DHT22;3623;47.098;15.446;2022-11-15T13:41:30;8.40;99.90
7163;DHT22;3623;47.098;15.446;2022-11-15T13:43:58;8.30;99.90
7163;DHT22;3623;47.098;15.446;2022-11-15T13:46:27;8.30;99.90
7163;DHT22;3623;47.098;15.446;2022-11-15T13:48:56;8.30;99.90
7163;DHT22;3623;47.098;15.446;2022-11-15T13:51:33;8.40;99.90
7163;DHT22;3623;47.098;15.446;2022-11-15T13:54:08;8.40;99.90
7163;DHT22;3623;47.098;15.446;2022-11-15T13:56:37;8.30;99.90
7163;DHT22;3623;47.098;15.446;2022-11-15T13:59:09;8.30;99.90
7163;DHT22;3623;47.098;15.446;2022-11-15T14:01:36;8.30;99.90
7163;DHT22;3623;47.098;15.446;2022-11-15T14:04:04;8.30;99.90
7163;DHT22;3623;47.098;15.446;2022-11-15T14:06:32;8.20;99.90
7163;DHT22;3623;47.098;15.446;2022-11-15T14:09:26;8.30;99.90
7163;DHT22;3623;47.098;15.446;2022-11-15T14:11:56;8.30;99.90
7163;DHT22;3623;47.098;15.446;2022-11-15T14:14:24;8.30;99.90
7163;DHT22;3623;47.098;15.446;2022-11-15T14:16:54;8.30;99.90
7163;DHT22;3623;47.098;15.446;2022-11-15T14:19:36;8.30;99.90
7163;DHT22;3623;47.098;15.446;2022-11-15T14:22:20;8.30;99.90
7163;DHT22;3623;47.098;15.446;2022-11-15T14:25:05;8.20;99.90
7163;DHT22;3623;47.098;15.446;2022-11-15T14:27:33;8.20;99.90
7163;DHT22;3623;47.098;15.446;2022-11-15T14:30:01;8.20;99.90
7163;DHT22;3623;47.098;15.446;2022-11-15T14:32:30;8.10;99.90
7163;DHT22;3623;47.098;15.446;2022-11-15T14:35:09;8.20;99.90
7163;DHT22;3623;47.098;15.446;2022-11-15T14:37:38;8.20;99.90
7163;DHT22;3623;47.098;15.446;2022-11-15T14:40:06;8.10;99.90
7163;DHT22;3623;47.098;15.446;2022-11-15T14:42:35;8.10;99.90
7163;DHT22;3623;47.098;15.446;2022-11-15T14:45:02;8.10;99.90
7163;DHT22;3623;47.098;15.446;2022-11-15T14:47:29;8.10;99.90
7163;DHT22;3623;47.098;15.446;2022-11-15T14:49:56;8.10;99.90
7163;DHT22;3623;47.098;15.446;2022-11-15T14:52:26;8.00;99.90
7163;DHT22;3623;47.098;15.446;2022-11-15T14:54:56;8.00;99.90
7163;DHT22;3623;47.098;15.446;2022-11-15T14:57:24;8.10;99.90
7163;DHT22;3623;47.098;15.446;2022-11-15T14:59:52;8.00;99.90
7163;DHT22;3623;47.098;15.446;2022-11-15T15:02:21;8.00;99.90
7163;DHT22;3623;47.098;15.446;2022-11-15T15:04:49;8.00;99.90
7163;DHT22;3623;47.098;15.446;2022-11-15T15:07:17;8.10;99.90
7163;DHT22;3623;47.098;15.446;2022-11-15T15:09:45;8.00;99.90
7163;DHT22;3623;47.098;15.446;2022-11-15T15:12:17;8.00;99.90
7163;DHT22;3623;47.098;15.446;2022-11-15T15:14:44;8.00;99.90
7163;DHT22;3623;47.098;15.446;2022-11-15T15:17:11;8.00;99.90
7163;DHT22;3623;47.098;15.446;2022-11-15T15:19:39;8.00;99.90
7163;DHT22;3623;47.098;15.446;2022-11-15T15:22:08;8.00;99.90
7163;DHT22;3623;47.098;15.446;2022-11-15T15:24:36;8.00;99.90
7163;DHT22;3623;47.098;15.446;2022-11-15T15:27:03;8.00;99.90
7163;DHT22;3623;47.098;15.446;2022-11-15T15:29:31;8.00;99.90
7163;DHT22;3623;47.098;15.446;2022-11-15T15:31:59;8.00;99.90
7163;DHT22;3623;47.098;15.446;2022-11-15T15:34:26;7.90;99.90
7163;DHT22;3623;47.098;15.446;2022-11-15T15:37:17;7.90;99.90
7163;DHT22;3623;47.098;15.446;2022-11-15T15:39:45;7.90;99.90
7163;DHT22;3623;47.098;15.446;2022-11-15T15:42:12;7.80;99.90
7163;DHT22;3623;47.098;15.446;2022-11-15T15:44:41;7.80;99.90
7163;DHT22;3623;47.098;15.446;2022-11-15T15:47:11;7.80;99.90
7163;DHT22;3623;47.098;15.446;2022-11-15T15:49:38;7.80;99.90
7163;DHT22;3623;47.098;15.446;2022-11-15T15:52:05;7.80;99.90
7163;DHT22;3623;47.098;15.446;2022-11-15T15:54:32;7.90;99.90
7163;DHT22;3623;47.098;15.446;2022-11-15T15:56:59;7.90;99.90
7163;DHT22;3623;47.098;15.446;2022-11-15T15:59:26;7.80;99.90
7163;DHT22;3623;47.098;15.446;2022-11-15T16:01:55;7.80;99.90
7163;DHT22;3623;47.098;15.446;2022-11-15T16:04:22;7.80;99.90
7163;DHT22;3623;47.098;15.446;2022-11-15T16:06:49;7.80;99.90
7163;DHT22;3623;47.098;15.446;2022-11-15T16:09:20;7.80;99.90
7163;DHT22;3623;47.098;15.446;2022-11-15T16:12:08;7.80;99.90
7163;DHT22;3623;47.098;15.446;2022-11-15T16:14:35;7.80;99.90
7163;DHT22;3623;47.098;15.446;2022-11-15T16:17:04;7.80;99.90
7163;DHT22;3623;47.098;15.446;2022-11-15T16:19:31;7.80;99.90
7163;DHT22;3623;47.098;15.446;2022-11-15T16:21:58;7.80;99.90
7163;DHT22;3623;47.098;15.446;2022-11-15T16:24:25;7.80;99.90
7163;DHT22;3623;47.098;15.446;2022-11-15T16:26:52;7.80;99.90
7163;DHT22;3623;47.098;15.446;2022-11-15T16:29:19;7.90;99.90
7163;DHT22;3623;47.098;15.446;2022-11-15T16:31:46;7.90;99.90
7163;DHT22;3623;47.098;15.446;2022-11-15T16:34:15;7.80;99.90
7163;DHT22;3623;47.098;15.446;2022-11-15T16:36:42;7.80;99.90
7163;DHT22;3623;47.098;15.446;2022-11-15T16:39:11;7.80;99.90